Time;durP1;ratioP1;P1;durP2;ratioP2;P2;SDS_P1;SDS_P2;PMS_P1;PMS_P2;Temp;Humidity;BMP_temperature;BMP_pressure;BME280_temperature;BME280_humidity;BME280_pressure;Samples;Min_cycle;Max_cycle;Signal;HPM_P1;HPM_P2
2022/09/08 03:46:54;;;;;;;21.65;14.35;;;;;;;17.55;100.00;100159.94;6670950;26;20081;-87
2022/09/08 03:49:58;;;;;;;21.25;15.32;;;;;;;17.57;100.00;100158.66;6694366;26;33921;-87
2022/09/08 03:53:01;;;;;;;22.80;15.35;;;;;;;17.60;100.00;100162.81;6691642;26;34618;-87
2022/09/08 03:56:11;;;;;;;21.10;15.38;;;;;;;17.60;100.00;100169.09;6695986;26;33556;-87
2022/09/08 03:59:14;;;;;;;21.20;15.63;;;;;;;17.58;100.00;100178.53;6700215;26;35207;-87
2022/09/08 04:02:18;;;;;;;21.77;15.35;;;;;;;17.57;100.00;100183.16;6690599;26;33919;-87
2022/09/08 04:05:21;;;;;;;20.35;14.80;;;;;;;17.55;100.00;100181.72;6670767;26;32472;-87
2022/09/08 04:08:24;;;;;;;20.33;14.50;;;;;;;17.48;100.00;100173.66;6669838;26;32739;-87
2022/09/08 04:11:27;;;;;;;18.75;14.40;;;;;;;17.50;100.00;100176.97;6690099;26;33765;-85
2022/09/08 04:14:30;;;;;;;18.92;14.38;;;;;;;17.50;100.00;100174.25;6690435;26;34015;-90
2022/09/08 04:17:33;;;;;;;20.62;13.52;;;;;;;17.51;100.00;100183.25;6690337;26;33681;-90
2022/09/08 04:20:38;;;;;;;26.20;14.25;;;;;;;17.51;100.00;100189.53;6690663;26;34324;-90
2022/09/08 04:23:41;;;;;;;22.92;14.93;;;;;;;17.50;100.00;100201.47;6690412;26;33745;-86
2022/09/08 04:26:43;;;;;;;22.60;14.85;;;;;;;17.51;100.00;100207.75;6690538;26;34547;-86
2022/09/08 04:29:46;;;;;;;18.50;13.55;;;;;;;17.53;100.00;100202.91;6690936;26;33465;-87
2022/09/08 04:32:49;;;;;;;18.90;13.62;;;;;;;17.53;100.00;100192.03;6690160;26;33881;-87
2022/09/08 04:35:51;;;;;;;22.00;14.13;;;;;;;17.52;100.00;100179.47;6690238;26;33952;-86
2022/09/08 04:39:16;;;;;;;19.17;14.27;;;;;;;17.55;100.00;100173.56;6691896;26;34518;-86
2022/09/08 04:42:21;;;;;;;21.25;14.15;;;;;;;17.60;100.00;100184.59;6690430;26;34795;-86
2022/09/08 04:45:24;;;;;;;20.20;15.02;;;;;;;17.65;100.00;100173.88;6697016;26;33880;-86
2022/09/08 04:48:29;;;;;;;18.77;14.05;;;;;;;17.69;100.00;100170.44;6690846;26;33693;-86
2022/09/08 04:51:32;;;;;;;18.62;13.77;;;;;;;17.74;100.00;100167.03;6670323;26;32350;-86
2022/09/08 04:54:35;;;;;;;18.12;13.68;;;;;;;17.79;100.00;100175.38;6691274;26;33646;-86
2022/09/08 04:57:37;;;;;;;18.58;13.80;;;;;;;17.85;100.00;100181.81;6691127;26;33987;-86
2022/09/08 05:00:40;;;;;;;17.95;14.40;;;;;;;17.90;100.00;100192.81;6690954;26;34188;-86
2022/09/08 05:03:42;;;;;;;17.60;13.40;;;;;;;17.99;100.00;100185.16;6670658;26;32586;-86
2022/09/08 05:06:45;;;;;;;19.08;13.98;;;;;;;18.07;100.00;100173.94;6670284;26;32162;-86
2022/09/08 05:09:48;;;;;;;16.55;12.57;;;;;;;18.12;99.01;100184.97;6692284;26;34447;-86
2022/09/08 05:12:50;;;;;;;19.60;14.18;;;;;;;18.22;98.87;100184.41;6691150;26;34902;-85
2022/09/08 05:16:03;;;;;;;21.20;13.98;;;;;;;18.29;98.92;100188.69;6690891;26;33805;-86
2022/09/08 05:19:07;;;;;;;21.15;13.82;;;;;;;18.34;97.83;100191.56;6670013;26;32955;-86
2022/09/08 05:22:09;;;;;;;22.10;14.18;;;;;;;18.41;98.45;100194.19;6670234;26;32379;-86
2022/09/08 05:25:12;;;;;;;19.45;14.02;;;;;;;18.45;97.03;100189.91;6690832;26;33848;-86
2022/09/08 05:28:15;;;;;;;18.95;13.98;;;;;;;18.53;97.50;100192.28;6690973;26;34299;-86
2022/09/08 05:31:22;;;;;;;19.60;13.95;;;;;;;18.62;96.82;100189.22;6670654;26;32388;-86
2022/09/08 05:34:25;;;;;;;17.55;13.27;;;;;;;18.63;96.12;100194.44;6671218;26;32504;-86
2022/09/08 05:37:30;;;;;;;17.40;13.13;;;;;;;18.63;95.92;100199.06;6701864;26;34556;-85
2022/09/08 05:40:36;;;;;;;18.85;14.38;;;;;;;18.68;96.19;100186.37;6710855;26;35344;-85
2022/09/08 05:43:39;;;;;;;20.23;14.02;;;;;;;18.77;96.36;100198.62;6691897;26;34029;-86
2022/09/08 05:46:43;;;;;;;19.30;13.52;;;;;;;18.93;93.25;100193.56;6695727;26;34876;-85
2022/09/08 05:49:46;;;;;;;19.30;13.80;;;;;;;19.02;91.77;100192.13;6670354;26;32512;-86
2022/09/08 05:52:49;;;;;;;18.65;13.88;;;;;;;19.06;92.08;100195.19;6690937;26;34559;-86
2022/09/08 05:55:56;;;;;;;20.30;13.70;;;;;;;19.16;91.34;100190.81;6692304;26;33954;-85
2022/09/08 05:58:59;;;;;;;17.87;12.68;;;;;;;19.30;91.26;100185.09;6705552;26;34732;-86
2022/09/08 06:02:02;;;;;;;16.42;12.05;;;;;;;19.44;88.98;100191.94;6701430;26;34018;-85
2022/09/08 06:05:05;;;;;;;15.95;12.00;;;;;;;19.57;85.52;100190.84;6689967;26;35072;-90
2022/09/08 06:08:08;;;;;;;16.50;11.88;;;;;;;19.70;84.52;100185.13;6670332;26;32649;-90
2022/09/08 06:11:11;;;;;;;17.83;12.57;;;;;;;19.81;84.68;100188.91;6690369;26;33518;-90
2022/09/08 06:14:13;;;;;;;17.08;12.70;;;;;;;19.96;83.53;100188.38;6670783;26;32581;-90
2022/09/08 06:17:17;;;;;;;15.18;11.77;;;;;;;19.92;82.36;100186.13;6692299;26;34233;-86
2022/09/08 06:20:20;;;;;;;17.12;11.95;;;;;;;20.00;81.42;100184.88;6671710;26;32527;-86
2022/09/08 06:23:23;;;;;;;13.40;10.60;;;;;;;20.01;82.53;100178.38;6691009;26;34645;-86
2022/09/08 06:26:54;;;;;;;15.65;11.35;;;;;;;20.08;80.61;100173.56;6691061;26;34168;-86
2022/09/08 06:30:04;;;;;;;14.82;10.73;;;;;;;20.21;80.43;100168.84;6691029;26;33871;-86
2022/09/08 06:33:13;;;;;;;13.80;10.77;;;;;;;20.35;80.20;100162.00;6691062;26;33902;-86
2022/09/08 06:36:38;;;;;;;15.27;11.07;;;;;;;20.39;78.40;100160.44;6670771;26;32320;-86
2022/09/08 06:39:50;;;;;;;14.82;10.63;;;;;;;20.58;77.88;100161.03;6659039;26;33595;-86
2022/09/08 06:43:06;;;;;;;13.30;10.30;;;;;;;20.70;76.15;100160.97;6671000;26;32783;-85
2022/09/08 06:46:37;;;;;;;16.05;9.70;;;;;;;20.75;76.74;100164.59;6691145;26;34631;-85
2022/09/08 06:49:41;;;;;;;12.43;9.88;;;;;;;20.88;75.32;100157.94;6677913;26;33521;-86
2022/09/08 06:52:48;;;;;;;12.73;10.05;;;;;;;20.89;75.22;100150.59;6695878;26;33699;-85
2022/09/08 06:56:36;;;;;;;12.65;9.75;;;;;;;20.92;74.84;100139.13;6669573;26;34623;-87
2022/09/08 07:00:14;;;;;;;12.85;8.45;;;;;;;21.14;74.40;100139.16;6690262;26;33897;-86
2022/09/08 07:03:43;;;;;;;11.02;8.93;;;;;;;21.43;73.08;100135.16;6690181;26;33829;-85
2022/09/08 07:07:05;;;;;;;11.93;9.20;;;;;;;21.57;72.51;100134.78;6690447;26;34597;-86
2022/09/08 07:10:28;;;;;;;14.40;8.85;;;;;;;21.69;71.34;100132.72;6690085;26;34069;-86
2022/09/08 07:13:39;;;;;;;13.93;8.88;;;;;;;21.89;69.45;100118.41;6689723;26;34207;-85
2022/09/08 07:16:48;;;;;;;11.20;8.13;;;;;;;22.08;68.80;100124.34;6689497;26;35209;-85
2022/09/08 07:19:53;;;;;;;13.13;8.47;;;;;;;22.12;69.26;100128.22;6669380;26;32606;-90
2022/09/08 07:23:05;;;;;;;12.02;8.70;;;;;;;22.28;68.61;100126.47;6689221;26;33469;-89
2022/09/08 07:26:26;;;;;;;16.25;8.93;;;;;;;22.44;68.01;100124.69;6669164;26;33272;-86
2022/09/08 07:29:40;;;;;;;12.00;8.20;;;;;;;22.23;68.53;100123.69;6689315;26;35117;-86
2022/09/08 07:32:48;;;;;;;13.20;8.77;;;;;;;22.32;68.42;100119.41;6688096;26;34757;-86
2022/09/08 07:36:42;;;;;;;13.13;8.00;;;;;;;22.42;67.96;100122.19;6669099;26;32445;-85
2022/09/08 07:40:01;;;;;;;11.68;8.13;;;;;;;22.61;67.79;100115.22;6662803;26;148941;-85
2022/09/08 07:43:10;;;;;;;10.55;7.57;;;;;;;22.77;66.07;100131.78;6688544;26;34367;-86
2022/09/08 07:46:39;;;;;;;13.02;8.15;;;;;;;23.00;66.03;100128.66;6691013;26;34316;-86
2022/09/08 07:49:45;;;;;;;11.77;8.55;;;;;;;23.15;65.34;100136.16;6689395;26;34562;-89
2022/09/08 07:53:17;;;;;;;11.07;7.93;;;;;;;22.97;64.69;100128.37;6689810;26;34419;-90
2022/09/08 07:56:24;;;;;;;10.68;8.15;;;;;;;23.19;64.37;100131.75;6707209;26;33803;-85
2022/09/08 07:59:40;;;;;;;10.68;8.00;;;;;;;23.17;65.59;100127.66;6684095;26;32852;-86
2022/09/08 08:03:00;;;;;;;11.07;8.02;;;;;;;23.31;65.16;100132.37;6706047;26;33841;-86
2022/09/08 08:06:28;;;;;;;10.43;8.07;;;;;;;23.46;64.14;100139.88;6711174;26;34194;-86
2022/09/08 08:09:42;;;;;;;10.25;7.87;;;;;;;23.68;64.79;100142.37;6691899;26;34330;-85
2022/09/08 08:13:04;;;;;;;10.95;6.93;;;;;;;23.97;63.32;100134.50;6668198;26;33395;-85
2022/09/08 08:16:09;;;;;;;12.15;8.32;;;;;;;24.14;61.89;100136.19;6688888;26;34116;-85
2022/09/08 08:19:37;;;;;;;10.32;7.97;;;;;;;23.96;63.09;100149.37;6668709;26;33967;-86
2022/09/08 08:23:11;;;;;;;10.65;8.10;;;;;;;24.02;61.69;100144.72;6697657;26;35035;-86
2022/09/08 08:26:36;;;;;;;9.60;7.60;;;;;;;24.29;60.95;100147.19;6689488;26;34073;-86
2022/09/08 08:30:12;;;;;;;12.07;7.93;;;;;;;24.60;60.20;100145.31;6693405;26;33914;-85
2022/09/08 08:33:28;;;;;;;9.68;7.47;;;;;;;24.90;60.43;100140.84;6674264;26;33255;-85
2022/09/08 08:36:40;;;;;;;12.35;7.50;;;;;;;24.94;58.69;100150.19;6673221;26;34135;-86
2022/09/08 08:39:45;;;;;;;11.63;7.65;;;;;;;25.14;59.30;100152.09;6669429;26;32707;-86
2022/09/08 08:43:12;;;;;;;13.25;7.70;;;;;;;25.23;58.33;100147.66;6689753;26;34546;-86
2022/09/08 08:46:51;;;;;;;11.45;7.30;;;;;;;25.09;57.00;100138.31;6659805;26;33164;-86
2022/09/08 08:50:16;;;;;;;10.40;7.93;;;;;;;25.14;59.53;100145.78;6662247;26;32412;-86
2022/09/08 08:53:36;;;;;;;11.45;6.50;;;;;;;25.34;56.43;100141.03;6664030;26;34224;-86
2022/09/08 08:57:19;;;;;;;10.07;7.22;;;;;;;25.51;56.00;100146.19;6661693;26;34599;-86
2022/09/08 09:00:31;;;;;;;12.35;7.95;;;;;;;25.93;55.21;100135.78;6662189;26;33806;-86
2022/09/08 09:04:02;;;;;;;14.85;7.37;;;;;;;25.81;54.68;100127.81;6660677;26;32571;-86
2022/09/08 09:07:30;;;;;;;19.50;8.55;;;;;;;25.91;55.81;100130.53;6662330;26;34277;-86
2022/09/08 09:10:43;;;;;;;10.82;7.12;;;;;;;26.11;55.66;100120.47;6660285;26;33885;-86
2022/09/08 09:14:13;;;;;;;13.60;7.40;;;;;;;26.14;54.08;100117.97;6662223;26;34475;-86
2022/09/08 09:17:41;;;;;;;11.80;6.82;;;;;;;26.08;54.29;100101.75;6662364;26;34931;-86
2022/09/08 09:21:20;;;;;;;10.95;7.07;;;;;;;26.39;53.92;100092.09;6667699;26;35305;-86
2022/09/08 09:24:26;;;;;;;12.02;7.35;;;;;;;26.63;53.72;100083.06;6648337;26;34345;-86
2022/09/08 09:27:41;;;;;;;12.65;7.78;;;;;;;26.69;52.58;100079.12;6667714;26;33928;-86
2022/09/08 09:31:01;;;;;;;10.88;7.30;;;;;;;26.79;51.30;100078.19;6662414;26;34145;-86
2022/09/08 09:34:12;;;;;;;11.18;7.65;;;;;;;26.95;52.33;100070.56;6662280;26;34218;-86
2022/09/08 09:37:21;;;;;;;9.52;6.72;;;;;;;26.87;51.62;100081.13;6661975;26;34237;-86
2022/09/08 09:40:44;;;;;;;;;;;;;;;27.11;51.45;100075.59;6662976;26;33773;-89
2022/09/08 09:43:55;;;;;;;11.30;7.00;;;;;;;27.17;50.88;100072.78;6661380;26;34564;-86
2022/09/08 09:47:17;;;;;;;8.18;6.55;;;;;;;27.50;51.28;100071.00;6659563;26;32672;-86
2022/09/08 09:50:51;;;;;;;10.52;6.45;;;;;;;27.77;49.41;100076.66;6659371;26;32597;-86
2022/09/08 09:53:58;;;;;;;7.97;6.12;;;;;;;27.72;49.18;100057.34;6661472;26;34243;-86
2022/09/08 09:57:29;;;;;;;13.05;6.20;;;;;;;27.85;50.29;100054.97;6660527;26;32768;-86
2022/09/08 10:01:11;;;;;;;8.48;6.25;;;;;;;28.12;48.09;100051.50;6662285;26;33983;-85
2022/09/08 10:04:33;;;;;;;8.00;6.28;;;;;;;28.19;48.36;100036.13;6662644;26;34215;-90
2022/09/08 10:07:59;;;;;;;7.95;5.93;;;;;;;28.40;48.89;100049.63;6663119;26;34390;-86
2022/09/08 10:11:40;;;;;;;6.45;5.85;;;;;;;28.45;47.18;100036.53;6674463;26;32914;-86
2022/09/08 10:15:03;;;;;;;8.90;5.57;;;;;;;28.68;47.96;100031.94;6677068;26;34440;-86
2022/09/08 10:18:09;;;;;;;9.18;5.62;;;;;;;28.74;47.46;100038.22;6664082;26;34275;-86
2022/09/08 10:21:51;;;;;;;7.10;6.25;;;;;;;28.77;46.33;100026.50;6667961;26;33935;-85
2022/09/08 10:25:32;;;;;;;7.45;5.53;;;;;;;29.11;46.91;100022.53;6588221;27;32387;-86
2022/09/08 10:28:57;;;;;;;7.10;5.12;;;;;;;29.15;45.76;100026.31;6637230;26;34982;-86
2022/09/08 10:32:31;;;;;;;6.25;5.35;;;;;;;29.20;45.17;100015.09;6684157;26;34348;-87
2022/09/08 10:35:46;;;;;;;6.47;5.70;;;;;;;29.45;44.47;100018.41;6672084;26;33979;-86
2022/09/08 10:39:00;;;;;;;7.82;5.07;;;;;;;29.74;44.99;100020.81;6659217;26;34154;-85
2022/09/08 10:42:24;;;;;;;9.88;5.30;;;;;;;29.76;44.33;100018.56;6659147;26;33513;-86
2022/09/08 10:45:57;;;;;;;5.47;4.82;;;;;;;29.80;43.18;100014.81;6665753;26;32776;-86
2022/09/08 10:49:18;;;;;;;6.20;5.18;;;;;;;29.71;43.67;100010.34;6671605;26;32711;-84
2022/09/08 10:52:31;;;;;;;6.65;5.00;;;;;;;30.24;42.82;100012.34;6690677;26;33411;-87
2022/09/08 10:56:11;;;;;;;7.53;4.62;;;;;;;30.72;42.01;100022.72;6669268;26;33082;-86
2022/09/08 10:59:33;;;;;;;7.72;4.80;;;;;;;30.76;41.33;100023.69;6690762;26;33992;-86
2022/09/08 11:03:21;;;;;;;6.65;4.90;;;;;;;30.83;41.63;100018.53;6670895;26;32420;-86
2022/09/08 11:06:36;;;;;;;6.45;4.57;;;;;;;31.02;41.60;100001.56;6668877;26;32252;-86
2022/09/08 11:10:16;;;;;;;4.85;3.65;;;;;;;31.54;40.06;100010.00;6688887;26;34024;-86
2022/09/08 11:13:59;;;;;;;5.00;3.97;;;;;;;31.49;39.78;99998.22;6701218;26;34777;-87
2022/09/08 11:17:08;;;;;;;7.15;4.10;;;;;;;31.40;39.55;100001.00;6711422;26;35255;-86
2022/09/08 11:20:34;;;;;;;5.50;3.55;;;;;;;32.07;39.17;99997.69;6689299;26;35560;-86
2022/09/08 11:23:36;;;;;;;6.82;4.12;;;;;;;32.55;38.31;100004.09;6689665;26;34696;-86
2022/09/08 11:26:54;;;;;;;6.57;4.30;;;;;;;32.54;38.71;100001.66;6689272;26;33627;-86
2022/09/08 11:30:10;;;;;;;5.40;3.40;;;;;;;33.10;37.94;99997.59;6668588;26;33084;-86
2022/09/08 11:33:37;;;;;;;6.15;3.60;;;;;;;33.30;35.70;99995.16;6691661;26;33702;-86
2022/09/08 11:37:17;;;;;;;5.57;3.20;;;;;;;34.32;35.51;99999.31;6668393;26;33703;-86
2022/09/08 11:40:26;;;;;;;3.40;3.10;;;;;;;34.52;33.82;100006.00;6668357;26;33447;-86
2022/09/08 11:43:45;;;;;;;3.75;2.62;;;;;;;35.60;32.34;100001.81;6689628;26;35190;-86
2022/09/08 11:47:21;;;;;;;4.03;2.50;;;;;;;36.44;29.94;100003.72;6688645;26;34581;-86
2022/09/08 11:50:33;;;;;;;2.95;2.20;;;;;;;36.44;29.95;100014.94;6696585;26;33922;-86
2022/09/08 11:54:01;;;;;;;3.25;2.40;;;;;;;36.60;30.08;100006.56;6689445;26;33673;-86
2022/09/08 11:57:46;;;;;;;5.35;1.90;;;;;;;37.24;28.89;99994.06;6688531;26;33620;-86
2022/09/08 12:01:07;;;;;;;1.98;1.80;;;;;;;37.55;28.11;99993.16;6694517;26;34088;-91
2022/09/08 12:04:46;;;;;;;2.85;2.10;;;;;;;36.71;29.92;99974.81;6691644;26;33651;-87
2022/09/08 12:07:52;;;;;;;5.18;2.30;;;;;;;37.04;29.34;99984.81;6691010;26;34182;-87
2022/09/08 12:11:42;;;;;;;4.18;2.08;;;;;;;36.01;29.91;99985.75;6672970;26;31891;-86
2022/09/08 12:14:53;;;;;;;2.53;1.70;;;;;;;34.09;32.70;99993.34;6624769;26;33948;-86
2022/09/08 12:18:05;;;;;;;2.75;2.25;;;;;;;33.43;34.02;99980.09;6701836;26;34080;-86
2022/09/08 12:21:43;;;;;;;5.57;2.03;;;;;;;33.20;34.48;99982.44;6705907;26;33910;-86
2022/09/08 12:25:08;;;;;;;3.92;2.20;;;;;;;34.86;31.31;99965.56;6643978;26;34113;-91
2022/09/08 12:28:51;;;;;;;5.40;1.98;;;;;;;35.75;30.13;99956.25;6690340;26;34755;-87
2022/09/08 12:32:19;;;;;;;2.53;1.80;;;;;;;35.94;29.99;99968.75;6670016;26;32462;-87
2022/09/08 12:35:31;;;;;;;6.18;2.03;;;;;;;35.60;29.59;99966.25;6670707;26;33249;-87
2022/09/08 12:39:05;;;;;;;3.60;1.87;;;;;;;35.63;30.03;99950.72;6690834;26;33951;-87
2022/09/08 12:42:42;;;;;;;4.10;1.60;;;;;;;36.01;29.65;99963.34;6670053;26;34682;-87
2022/09/08 12:46:07;;;;;;;3.58;2.15;;;;;;;36.12;29.56;99964.47;6670327;26;32500;-91
2022/09/08 12:49:17;;;;;;;2.70;1.80;;;;;;;36.55;29.22;99952.38;6669964;26;34071;-87
2022/09/08 12:52:45;;;;;;;4.93;1.80;;;;;;;36.28;29.64;99940.06;6696102;26;34020;-87
2022/09/08 12:56:26;;;;;;;5.57;2.00;;;;;;;35.04;31.18;99928.94;6690188;26;33591;-87
2022/09/08 13:00:00;;;;;;;4.75;1.80;;;;;;;35.12;30.72;99934.41;6670508;26;34006;-87
2022/09/08 13:03:18;;;;;;;4.35;1.87;;;;;;;34.78;30.79;99929.34;6670308;26;33519;-87
2022/09/08 13:06:28;;;;;;;6.97;2.10;;;;;;;34.86;30.82;99923.59;6669907;26;33685;-87
2022/09/08 13:09:38;;;;;;;3.12;2.00;;;;;;;34.71;31.09;99929.94;6670229;26;32461;-91
2022/09/08 13:13:07;;;;;;;4.82;1.80;;;;;;;34.86;31.31;99931.19;6690258;26;34977;-91
2022/09/08 13:16:33;;;;;;;2.12;1.60;;;;;;;35.02;30.70;99920.91;6662181;26;32458;-86
2022/09/08 13:20:14;;;;;;;4.25;1.58;;;;;;;34.72;30.54;99923.16;6669291;26;32904;-87
2022/09/08 13:23:19;;;;;;;3.95;1.77;;;;;;;34.30;32.23;99909.41;6669517;26;32522;-87
2022/09/08 13:26:56;;;;;;;5.32;1.70;;;;;;;33.83;32.48;99901.41;6669887;26;32448;-87
2022/09/08 13:30:05;;;;;;;3.78;1.83;;;;;;;32.90;33.74;99903.53;6690166;26;33867;-87
2022/09/08 13:34:09;;;;;;;5.30;2.05;;;;;;;32.44;34.36;99897.75;6690495;26;34291;-87
2022/09/08 13:37:12;;;;;;;;;;;;;;;32.00;35.40;99893.50;6645150;26;32805;-87
2022/09/08 13:40:36;;;;;;;3.67;1.92;;;;;;;31.82;35.82;99882.41;6670631;26;34343;-87
2022/09/08 13:43:58;;;;;;;3.58;2.05;;;;;;;31.54;36.25;99879.22;6672788;26;32994;-87
2022/09/08 13:47:29;;;;;;;5.62;1.98;;;;;;;31.16;36.52;99882.66;6694410;26;35282;-87
2022/09/08 13:51:07;;;;;;;4.10;2.00;;;;;;;30.79;37.66;99884.13;6690802;26;33970;-87
2022/09/08 13:54:35;;;;;;;4.40;2.08;;;;;;;30.53;39.12;99880.44;6671886;26;32906;-86
2022/09/08 13:57:43;;;;;;;3.78;2.30;;;;;;;30.25;39.43;99886.28;6690726;26;33657;-87
2022/09/08 14:01:12;;;;;;;4.50;2.80;;;;;;;29.96;39.52;99882.03;6671101;26;32654;-87
2022/09/08 14:04:25;;;;;;;3.78;2.00;;;;;;;29.82;40.07;99878.53;6690955;26;34049;-86
2022/09/08 14:07:27;;;;;;;3.75;2.25;;;;;;;29.69;40.61;99883.03;6706172;26;33580;-86
2022/09/08 14:10:45;;;;;;;3.87;2.22;;;;;;;29.52;41.21;99872.63;6709154;26;35258;-87
2022/09/08 14:13:48;;;;;;;3.30;2.50;;;;;;;29.44;41.86;99867.84;6690285;26;34506;-87
2022/09/08 14:17:05;;;;;;;4.40;2.40;;;;;;;29.34;42.20;99868.09;6670764;26;34001;-87
2022/09/08 14:20:30;;;;;;;2.60;2.17;;;;;;;29.25;42.70;99873.59;6691392;26;34637;-87
2022/09/08 14:23:57;;;;;;;8.32;2.42;;;;;;;29.07;43.68;99853.22;6671446;26;33727;-87
2022/09/08 14:27:29;;;;;;;4.23;2.10;;;;;;;29.02;43.71;99850.59;6665410;26;34536;-87
2022/09/08 14:31:24;;;;;;;4.15;1.83;;;;;;;28.87;43.92;99845.34;6702306;26;33766;-88
2022/09/08 14:34:33;;;;;;;5.68;2.33;;;;;;;28.58;44.71;99849.34;6666384;26;34330;-87
2022/09/08 14:38:01;;;;;;;3.78;2.22;;;;;;;28.49;44.74;99837.38;6671016;26;32893;-87
2022/09/08 14:41:16;;;;;;;3.90;2.12;;;;;;;28.42;45.16;99843.31;6681765;26;34882;-87
2022/09/08 14:45:02;;;;;;;3.20;1.98;;;;;;;28.37;45.97;99850.88;6697983;26;33877;-87
2022/09/08 14:48:11;;;;;;;4.00;2.00;;;;;;;28.25;45.50;99832.81;6694587;26;34229;-87
2022/09/08 14:51:42;;;;;;;6.18;2.17;;;;;;;28.13;45.99;99867.69;6690941;26;34483;-90
2022/09/08 14:55:12;;;;;;;9.98;3.17;;;;;;;27.55;54.75;99892.00;6697796;26;33883;-85
2022/09/08 14:58:37;;;;;;;12.20;4.43;;;;;;;24.27;83.30;99909.22;6678632;26;32165;-86
2022/09/08 15:01:55;;;;;;;9.88;3.90;;;;;;;22.11;100.00;99893.50;6703238;26;33820;-86
2022/09/08 15:05:22;;;;;;;10.68;4.03;;;;;;;21.48;100.00;99890.62;6689841;26;34295;-86
2022/09/08 15:08:34;;;;;;;6.25;3.65;;;;;;;21.34;100.00;99889.41;6684726;26;32404;-86
2022/09/08 15:11:43;;;;;;;5.83;3.40;;;;;;;21.30;100.00;99894.56;6702162;26;34588;-86
2022/09/08 15:14:55;;;;;;;8.70;3.62;;;;;;;21.23;100.00;99883.81;6697846;26;34028;-86
2022/09/08 15:18:10;;;;;;;7.30;4.10;;;;;;;21.28;100.00;99885.78;6691775;26;34725;-86
2022/09/08 15:21:17;;;;;;;6.25;3.60;;;;;;;21.41;100.00;99887.28;6690736;26;33981;-90
2022/09/08 15:24:45;;;;;;;13.05;4.35;;;;;;;21.57;100.00;99907.41;6670600;26;32892;-86
2022/09/08 15:27:48;;;;;;;6.47;4.20;;;;;;;21.78;100.00;99902.91;6669392;26;33269;-85
2022/09/08 15:31:08;;;;;;;7.37;4.20;;;;;;;21.91;100.00;99910.69;6668915;26;32854;-85
2022/09/08 15:34:36;;;;;;;9.57;4.95;;;;;;;22.06;100.00;99909.94;6689597;26;33639;-85
2022/09/08 15:37:53;;;;;;;9.15;4.62;;;;;;;22.27;100.00;99913.66;6669488;26;34345;-85
2022/09/08 15:41:13;;;;;;;5.05;3.80;;;;;;;22.40;100.00;99908.50;6669043;26;34211;-85
2022/09/08 15:44:55;;;;;;;9.00;4.28;;;;;;;22.65;100.00;99906.97;6689873;26;33973;-85
2022/09/08 15:48:32;;;;;;;10.30;4.30;;;;;;;22.76;100.00;99916.06;6689440;26;34006;-89
2022/09/08 15:51:46;;;;;;;7.90;3.62;;;;;;;22.88;100.00;99900.16;6689709;26;34202;-86
2022/09/08 15:54:48;;;;;;;7.85;4.30;;;;;;;23.01;100.00;99898.84;6689411;26;34527;-86
2022/09/08 15:57:57;;;;;;;10.40;4.40;;;;;;;23.00;100.00;99911.75;6689329;26;34384;-86
